Main page
METAR-TAF:

METAR-TAF

Airports :

San Fernando, Argentina

San Fernando Airport

latitude: 34-27-11S, longitude: 058-35-23W, elevation: 3 m

Current weather observation

The report was made 26 minutes ago, at 23:00 UTC
Wind 3 kt from the Northwest
Temperature 17°C
Humidity 63%
Pressure 1015 hPa
Visibility 10 km or more
no clouds below 1500 m and no cumulonimbus

METAR: SADF 172300Z 32003KT CAVOK 17/10 Q1015

Time: 20:26 (23:26 UTC)

Forecast

The report was made 6 hours and 26 minutes ago, at 17:00 UTC
Forecast valid from 17 at 18 UTC to 18 at 18 UTC
Wind 10 kt from the Northwest with gusts up to 20 kt
Visibility 10 km or more
no clouds below 1500 m and no cumulonimbus
Becoming
from 17 at 23 UTC to 18 at 01 UTC
Wind 5 kt from the North/Northwest
Becoming
from 18 at 12 UTC to 18 at 14 UTC
Wind 10 kt from the North with gusts up to 20 kt

TAF: SADF 171700Z 1718/1818 32010G20KT CAVOK TX22/1818Z TN11/1811Z BECMG 1723/1801 34005KT BECMG 1812/1814 36010G20KT

Weather observations and forecasts of more than 4000 airports (METAR and TAF reports).

The available stations are represented by yellow and red dots on the map.

Hover mouse over dot to see the name of the station.

Then click to see weather observations and forecasts.

To change the map : click on the green buttons with a black cross to zoom in, on the green button with a dash to zoom out, or on the green arrows for adjacent maps.


METAR-TAF: